Time;durP1;ratioP1;P1;durP2;ratioP2;P2;SDS_P1;SDS_P2;PMS_P1;PMS_P2;Temp;Humidity;BMP_temperature;BMP_pressure;BME280_temperature;BME280_humidity;BME280_pressure;Samples;Min_cycle;Max_cycle;Signal;HPM_P1;HPM_P2
2021/11/01 00:01:12;;;;;;;41.13;23.42;;;;;;;-141.50;100.00;63355.56;4923431;29;20056;-79
2021/11/01 00:03:39;;;;;;;41.92;24.05;;;;;;;-141.50;100.00;63355.56;4922132;29;20071;-80
2021/11/01 00:06:07;;;;;;;41.45;24.52;;;;;;;-141.50;100.00;63355.56;4924935;29;20056;-80
2021/11/01 00:08:34;;;;;;;40.80;24.40;;;;;;;-141.50;100.00;63355.56;4925575;29;20484;-79
2021/11/01 00:11:00;;;;;;;40.13;23.25;;;;;;;-141.50;100.00;63355.56;4920912;29;20052;-79
2021/11/01 00:13:27;;;;;;;41.22;24.15;;;;;;;-141.50;100.00;63355.56;4920777;29;20524;-79
2021/11/01 00:15:53;;;;;;;39.90;23.23;;;;;;;-141.50;100.00;63355.56;4921407;29;20056;-80
2021/11/01 00:18:20;;;;;;;40.33;24.27;;;;;;;-141.50;100.00;63355.56;4919980;29;20056;-80
2021/11/01 00:20:47;;;;;;;41.33;23.00;;;;;;;-141.50;100.00;63355.56;4919301;29;20048;-80
2021/11/01 00:23:13;;;;;;;40.35;24.27;;;;;;;-141.50;100.00;63355.56;4920592;29;20056;-80
2021/11/01 00:25:40;;;;;;;39.28;24.05;;;;;;;-141.50;100.00;63355.56;4919689;29;20552;-79
2021/11/01 00:28:08;;;;;;;44.08;24.17;;;;;;;-141.50;100.00;63355.56;4919529;29;20067;-80
2021/11/01 00:30:35;;;;;;;35.80;22.30;;;;;;;-141.50;100.00;63355.56;4920829;29;20082;-79
2021/11/01 00:33:01;;;;;;;42.58;24.23;;;;;;;-141.50;100.00;63355.56;4920894;29;20138;-79
2021/11/01 00:35:29;;;;;;;39.40;23.85;;;;;;;-141.50;100.00;63355.56;4920394;29;20059;-79
2021/11/01 00:37:55;;;;;;;42.63;25.08;;;;;;;-141.50;100.00;63355.56;4919634;29;20048;-79
2021/11/01 00:40:22;;;;;;;40.58;23.38;;;;;;;-141.50;100.00;63355.56;4919478;29;20048;-79
2021/11/01 00:42:48;;;;;;;42.65;24.05;;;;;;;-141.50;100.00;63355.56;4918728;29;20088;-79
2021/11/01 00:45:15;;;;;;;38.50;23.48;;;;;;;-141.50;100.00;63355.56;4919970;29;20151;-80
2021/11/01 00:47:41;;;;;;;40.10;23.05;;;;;;;-141.50;100.00;63355.56;4919567;29;20567;-80
2021/11/01 00:50:09;;;;;;;41.53;23.92;;;;;;;-141.50;100.00;63355.56;4918924;29;20055;-79
2021/11/01 00:52:35;;;;;;;43.85;25.15;;;;;;;-141.50;100.00;63355.56;4920535;29;20067;-79
2021/11/01 00:55:05;;;;;;;39.53;23.77;;;;;;;-141.50;100.00;63355.56;4919991;29;20067;-80
2021/11/01 00:57:32;;;;;;;43.35;24.48;;;;;;;-141.50;100.00;63355.56;4920291;29;20040;-80
2021/11/01 01:00:00;;;;;;;39.92;24.33;;;;;;;-141.50;100.00;63355.56;4922638;29;20071;-78
2021/11/01 01:02:32;;;;;;;42.92;24.45;;;;;;;-141.50;100.00;63355.56;4924446;29;20464;-79
2021/11/01 01:05:01;;;;;;;42.78;24.45;;;;;;;-141.50;100.00;63355.56;4922748;29;20055;-80
2021/11/01 01:07:28;;;;;;;42.30;23.70;;;;;;;-141.50;100.00;63355.56;4922617;29;20048;-80
2021/11/01 01:09:54;;;;;;;44.20;23.83;;;;;;;-141.50;100.00;63355.56;4922123;29;20052;-80
2021/11/01 01:12:21;;;;;;;42.42;23.65;;;;;;;-141.50;100.00;63355.56;4923914;29;20052;-80
2021/11/01 01:14:59;;;;;;;43.92;24.92;;;;;;;-141.50;100.00;63355.56;4926844;29;20056;-80
2021/11/01 01:17:26;;;;;;;43.25;23.52;;;;;;;-141.50;100.00;63355.56;4926670;29;20393;-80
2021/11/01 01:20:06;;;;;;;42.83;24.73;;;;;;;-141.50;100.00;63355.56;4928035;29;20048;-80
2021/11/01 01:22:33;;;;;;;40.55;23.40;;;;;;;-141.50;100.00;63355.56;4926165;29;20556;-80
2021/11/01 01:25:11;;;;;;;43.33;24.27;;;;;;;-141.50;100.00;63355.56;4926651;29;20052;-79
2021/11/01 01:27:42;;;;;;;39.75;23.25;;;;;;;-141.50;100.00;63355.56;4927266;29;20056;-80
2021/11/01 01:30:11;;;;;;;40.15;22.95;;;;;;;-141.50;100.00;63355.56;4927138;29;20104;-79
2021/11/01 01:32:39;;;;;;;39.45;23.35;;;;;;;-141.50;100.00;63355.56;4927066;29;20059;-79
2021/11/01 01:35:07;;;;;;;37.30;22.63;;;;;;;-141.50;100.00;63355.56;4924783;29;20056;-79
2021/11/01 01:37:34;;;;;;;41.92;22.92;;;;;;;-141.50;100.00;63355.56;4923086;29;20059;-79
2021/11/01 01:40:01;;;;;;;40.00;23.92;;;;;;;-141.50;100.00;63355.56;4945991;23;20582;-84
2021/11/01 01:42:27;;;;;;;37.47;22.10;;;;;;;-141.50;100.00;63355.56;4925676;29;20115;-84
2021/11/01 01:44:54;;;;;;;38.28;22.10;;;;;;;-141.50;100.00;63355.56;4925170;29;20443;-85
2021/11/01 01:47:21;;;;;;;35.65;21.80;;;;;;;-141.50;100.00;63355.56;4926353;29;20063;-85
2021/11/01 01:49:47;;;;;;;41.28;22.92;;;;;;;-141.50;100.00;63355.56;4926879;29;20048;-84
2021/11/01 01:52:14;;;;;;;45.50;22.48;;;;;;;-141.50;100.00;63355.56;4959189;23;20107;-79
2021/11/01 01:54:41;;;;;;;39.40;21.88;;;;;;;-141.50;100.00;63355.56;4928353;29;20080;-80
2021/11/01 01:57:08;;;;;;;36.35;21.55;;;;;;;-141.50;100.00;63355.56;4940710;29;20047;-80
2021/11/01 01:59:35;;;;;;;38.75;22.42;;;;;;;-141.50;100.00;63355.56;4939724;29;20047;-80
2021/11/01 02:02:02;;;;;;;34.33;21.20;;;;;;;-141.50;100.00;63355.56;4940438;29;20051;-81
2021/11/01 02:04:29;;;;;;;38.25;22.60;;;;;;;-141.50;100.00;63355.56;4939506;29;20158;-79
2021/11/01 02:07:09;;;;;;;38.40;22.42;;;;;;;-141.50;100.00;63355.56;4922617;29;20150;-81
2021/11/01 02:09:45;;;;;;;41.80;22.17;;;;;;;-141.50;100.00;63355.56;4938971;29;20048;-81
2021/11/01 02:12:19;;;;;;;39.17;21.67;;;;;;;-141.50;100.00;63355.56;4939811;29;20060;-82
2021/11/01 02:14:53;;;;;;;40.75;22.98;;;;;;;-141.50;100.00;63355.56;4922423;29;20496;-81
2021/11/01 02:17:28;;;;;;;41.47;22.75;;;;;;;-141.50;100.00;63355.56;4922180;29;20111;-80
2021/11/01 02:20:00;;;;;;;36.95;21.90;;;;;;;-141.50;100.00;63355.56;4923276;29;20110;-81
2021/11/01 02:22:40;;;;;;;41.80;22.45;;;;;;;-141.50;100.00;63355.56;4938948;29;20055;-80
2021/11/01 02:25:15;;;;;;;42.72;23.20;;;;;;;-141.50;100.00;63355.56;4922226;29;20059;-81
2021/11/01 02:27:44;;;;;;;44.40;23.65;;;;;;;-141.50;100.00;63355.56;4921664;29;20791;-81
2021/11/01 02:30:12;;;;;;;39.95;22.80;;;;;;;-141.50;100.00;63355.56;4921241;29;20071;-80
2021/11/01 02:32:42;;;;;;;37.97;21.92;;;;;;;-141.50;100.00;63355.56;4921587;29;20055;-81
2021/11/01 02:35:10;;;;;;;37.55;22.42;;;;;;;-141.50;100.00;63355.56;4939035;29;20467;-81
2021/11/01 02:37:38;;;;;;;41.63;22.80;;;;;;;-141.50;100.00;63355.56;4921507;29;20051;-81
2021/11/01 02:40:07;;;;;;;40.15;22.90;;;;;;;-141.50;100.00;63355.56;4921594;29;20047;-81
2021/11/01 02:42:34;;;;;;;41.17;22.42;;;;;;;-141.50;100.00;63355.56;4921925;29;20072;-82
2021/11/01 02:45:06;;;;;;;38.20;22.05;;;;;;;-141.50;100.00;63355.56;4939137;29;20476;-81
2021/11/01 02:47:33;;;;;;;36.00;22.08;;;;;;;-141.50;100.00;63355.56;4938624;29;20062;-82
2021/11/01 02:50:04;;;;;;;35.03;20.75;;;;;;;-141.50;100.00;63355.56;4921760;29;20047;-81
2021/11/01 02:52:31;;;;;;;36.10;20.70;;;;;;;-141.50;100.00;63355.56;4920195;29;20059;-81
2021/11/01 02:54:58;;;;;;;35.13;20.08;;;;;;;-141.50;100.00;63355.56;4921794;29;20055;-81
2021/11/01 02:57:24;;;;;;;33.72;19.42;;;;;;;-141.50;100.00;63355.56;4938455;29;20110;-81
2021/11/01 02:59:51;;;;;;;35.85;19.15;;;;;;;-141.50;100.00;63355.56;4920630;29;20048;-80
2021/11/01 03:02:18;;;;;;;33.20;18.50;;;;;;;-141.50;100.00;63355.56;4926831;29;20085;-80
2021/11/01 03:04:45;;;;;;;31.15;18.60;;;;;;;-141.50;100.00;63355.56;4922702;29;20048;-81
2021/11/01 03:07:13;;;;;;;36.50;19.73;;;;;;;-141.50;100.00;63355.56;4919447;29;20143;-80
2021/11/01 03:09:44;;;;;;;33.17;18.95;;;;;;;-141.50;100.00;63355.56;4918760;29;20055;-82
2021/11/01 03:12:13;;;;;;;33.75;18.45;;;;;;;-141.50;100.00;63355.56;4936655;29;20666;-80
2021/11/01 03:14:48;;;;;;;29.70;17.42;;;;;;;-141.50;100.00;63355.56;4936232;29;20181;-80
2021/11/01 03:17:18;;;;;;;30.00;16.30;;;;;;;-141.50;100.00;63355.56;4902774;29;20048;-82
2021/11/01 03:19:49;;;;;;;29.42;17.20;;;;;;;-141.50;100.00;63355.56;4935398;29;20052;-80
2021/11/01 03:22:17;;;;;;;28.27;16.85;;;;;;;-141.50;100.00;63355.56;4917166;29;20055;-80
2021/11/01 03:24:46;;;;;;;33.60;19.15;;;;;;;-141.50;100.00;63355.56;4935899;29;20111;-80
2021/11/01 03:27:16;;;;;;;36.10;18.75;;;;;;;-141.50;100.00;63355.56;4920119;29;20059;-81
2021/11/01 03:29:45;;;;;;;33.10;18.98;;;;;;;-141.50;100.00;63355.56;4918971;29;20051;-83
2021/11/01 03:32:13;;;;;;;32.50;18.20;;;;;;;-141.50;100.00;63355.56;4936331;29;20075;-81
2021/11/01 03:34:41;;;;;;;31.10;17.58;;;;;;;-141.50;100.00;63355.56;4936722;29;20433;-84
2021/11/01 03:37:11;;;;;;;33.03;17.98;;;;;;;-141.50;100.00;63355.56;4936992;29;20820;-83
2021/11/01 03:39:42;;;;;;;32.35;17.90;;;;;;;-141.50;100.00;63355.56;4936202;29;20167;-83
2021/11/01 03:42:11;;;;;;;32.17;18.70;;;;;;;-141.50;100.00;63355.56;4936609;29;20079;-80
2021/11/01 03:44:44;;;;;;;34.75;19.00;;;;;;;-141.50;100.00;63355.56;4919337;29;20047;-80
2021/11/01 03:47:14;;;;;;;34.40;19.48;;;;;;;-141.50;100.00;63355.56;4936740;29;20412;-83
2021/11/01 03:49:49;;;;;;;32.88;19.13;;;;;;;-141.50;100.00;63355.56;4936552;29;20047;-81
2021/11/01 03:52:22;;;;;;;37.58;19.58;;;;;;;-141.50;100.00;63355.56;4902050;29;1035635;-83
2021/11/01 03:54:51;;;;;;;37.67;19.67;;;;;;;-141.50;100.00;63355.56;4920550;29;20055;-83
2021/11/01 03:57:19;;;;;;;35.20;20.40;;;;;;;-141.50;100.00;63355.56;4919999;29;20408;-82
2021/11/01 03:59:46;;;;;;;35.08;19.75;;;;;;;-141.50;100.00;63355.56;4936562;29;20059;-83
2021/11/01 04:02:16;;;;;;;36.47;20.42;;;;;;;-141.50;100.00;63355.56;4936131;29;20056;-80
2021/11/01 04:04:50;;;;;;;34.80;19.88;;;;;;;-141.50;100.00;63355.56;4920640;29;20062;-83
2021/11/01 04:07:17;;;;;;;35.92;20.02;;;;;;;-141.50;100.00;63355.56;4938188;29;20500;-82
2021/11/01 04:09:44;;;;;;;35.67;19.58;;;;;;;-141.50;100.00;63355.56;4936989;29;20575;-82
2021/11/01 04:12:12;;;;;;;33.25;19.60;;;;;;;-141.50;100.00;63355.56;4920072;29;20052;-82
2021/11/01 04:14:43;;;;;;;32.67;19.52;;;;;;;-141.50;100.00;63355.56;4920377;29;20055;-83
2021/11/01 04:17:22;;;;;;;37.15;20.75;;;;;;;-141.50;100.00;63355.56;4919602;29;20063;-82
2021/11/01 04:22:32;;;;;;;31.85;19.13;;;;;;;-141.50;100.00;63355.56;4936897;29;20063;-82
2021/11/01 04:25:00;;;;;;;34.30;18.85;;;;;;;-141.50;100.00;63355.56;4920519;29;20538;-82
2021/11/01 04:27:26;;;;;;;31.23;19.95;;;;;;;-141.50;100.00;63355.56;4937376;29;20094;-81
2021/11/01 04:29:53;;;;;;;34.08;19.25;;;;;;;-141.50;100.00;63355.56;4937099;29;20051;-83
2021/11/01 04:32:42;;;;;;;35.72;18.85;;;;;;;-141.50;100.00;63355.56;4920421;29;20154;-84
2021/11/01 04:35:20;;;;;;;40.47;20.88;;;;;;;-141.50;100.00;63355.56;4941400;29;20052;-81
2021/11/01 04:37:49;;;;;;;36.33;20.52;;;;;;;-141.50;100.00;63355.56;4941597;29;20567;-83
2021/11/01 04:40:28;;;;;;;37.85;20.13;;;;;;;-141.50;100.00;63355.56;4941376;29;20059;-83
2021/11/01 04:53:42;;;;;;;31.98;18.85;;;;;;;-141.50;100.00;63355.56;4936392;29;20091;-80
2021/11/01 04:56:10;;;;;;;32.72;19.35;;;;;;;-141.50;100.00;63355.56;4936757;29;20099;-80
2021/11/01 04:58:38;;;;;;;38.85;19.05;;;;;;;-141.50;100.00;63355.56;4939861;29;20489;-80
2021/11/01 05:01:05;;;;;;;33.83;19.20;;;;;;;-141.50;100.00;63355.56;4924547;29;20044;-81
2021/11/01 05:05:59;;;;;;;34.35;18.25;;;;;;;-141.50;100.00;63355.56;4949104;29;20087;-82
2021/11/01 05:08:34;;;;;;;31.15;17.92;;;;;;;-141.50;100.00;63355.56;4932220;29;20083;-81
2021/11/01 05:11:09;;;;;;;30.33;16.95;;;;;;;-141.50;100.00;63355.56;4951119;29;20051;-84
2021/11/01 05:13:37;;;;;;;24.10;14.77;;;;;;;-141.50;100.00;63355.56;4951061;29;20055;-81
2021/11/01 05:16:52;;;;;;;28.33;15.65;;;;;;;-141.50;100.00;63355.56;4938608;29;20063;-80
2021/11/01 05:19:04;;;;;;;26.48;15.52;;;;;;;-141.50;100.00;63355.56;4943567;29;20067;-84
2021/11/01 05:24:26;;;;;;;28.63;15.60;;;;;;;-141.50;100.00;63355.56;4958318;28;20032;-82
2021/11/01 05:29:14;;;;;;;27.80;15.43;;;;;;;-141.50;100.00;63355.56;4956697;29;20087;-82
2021/11/01 05:31:56;;;;;;;30.33;15.93;;;;;;;-141.50;100.00;63355.56;4948250;29;20048;-79
2021/11/01 05:34:24;;;;;;;26.65;15.38;;;;;;;-141.50;100.00;63355.56;4941226;29;20445;-81
2021/11/01 05:36:51;;;;;;;23.77;14.27;;;;;;;-141.50;100.00;63355.56;4940170;29;20122;-81
2021/11/01 05:39:18;;;;;;;27.35;15.88;;;;;;;-141.50;100.00;63355.56;4925179;29;20120;-80
2021/11/01 05:41:45;;;;;;;23.83;15.25;;;;;;;-141.50;100.00;63355.56;4924272;29;20048;-80
2021/11/01 05:44:12;;;;;;;27.20;15.43;;;;;;;-141.50;100.00;63355.56;4940642;29;20164;-83
2021/11/01 05:46:43;;;;;;;27.80;15.52;;;;;;;-141.50;100.00;63355.56;4923682;29;20056;-83
2021/11/01 05:49:10;;;;;;;22.98;14.57;;;;;;;-141.50;100.00;63355.56;4922484;29;20501;-83
2021/11/01 05:51:36;;;;;;;24.02;14.57;;;;;;;-141.50;100.00;63355.56;4927102;29;20074;-82
2021/11/01 05:54:09;;;;;;;21.67;14.07;;;;;;;-141.50;100.00;63355.56;4942861;29;20055;-83
2021/11/01 05:59:24;;;;;;;22.42;13.75;;;;;;;-141.50;100.00;63355.56;4921615;29;20052;-81
2021/11/01 06:04:55;;;;;;;21.25;13.73;;;;;;;-141.50;100.00;63355.56;4884564;29;20417;-81
2021/11/01 06:07:39;;;;;;;25.58;13.52;;;;;;;-141.50;100.00;63355.56;4920338;29;20115;-81
2021/11/01 06:15:18;;;;;;;22.45;11.52;;;;;;;-141.50;100.00;63355.56;4920407;29;20540;-79
2021/11/01 06:17:45;;;;;;;20.40;11.63;;;;;;;-141.50;100.00;63355.56;4903298;29;20056;-81
2021/11/01 06:20:14;;;;;;;19.33;12.35;;;;;;;-141.50;100.00;63355.56;4921027;29;20501;-79
2021/11/01 06:22:43;;;;;;;19.25;11.73;;;;;;;-141.50;100.00;63355.56;4919961;29;20399;-82
2021/11/01 06:25:13;;;;;;;19.65;11.32;;;;;;;-141.50;100.00;63355.56;4902880;29;20048;-79
2021/11/01 06:27:40;;;;;;;18.65;11.65;;;;;;;-141.50;100.00;63355.56;4920352;29;20112;-80
2021/11/01 06:30:29;;;;;;;19.15;11.60;;;;;;;-141.50;100.00;63355.56;4903300;29;20113;-82
2021/11/01 06:49:44;;;;;;;20.60;13.07;;;;;;;-141.50;100.00;63355.56;4932012;29;20116;-79
2021/11/01 06:54:54;;;;;;;25.05;15.10;;;;;;;-141.50;100.00;63355.56;4921213;29;20071;-82
2021/11/01 08:28:47;;;;;;;33.50;17.08;;;;;;;12.85;100.00;96618.09;5118105;27;20468;-81
2021/11/01 08:39:47;;;;;;;32.97;18.45;;;;;;;12.39;100.00;96621.63;5113904;28;20551;-82
2021/11/01 08:42:47;;;;;;;28.75;17.55;;;;;;;12.43;100.00;96615.19;5112655;28;20048;-82
2021/11/01 08:48:01;;;;;;;29.35;15.93;;;;;;;12.44;100.00;96627.59;5114770;28;20056;-83
2021/11/01 09:01:40;;;;;;;24.70;14.40;;;;;;;12.66;100.00;96626.19;5116239;28;20795;-83
2021/11/01 09:07:07;;;;;;;21.17;12.10;;;;;;;12.71;100.00;96627.84;5116938;28;20059;-80
2021/11/01 09:20:41;;;;;;;16.10;9.00;;;;;;;12.80;100.00;96621.06;5113044;28;20055;-79
2021/11/01 09:23:39;;;;;;;18.20;9.13;;;;;;;12.94;100.00;96624.13;5111256;28;20502;-80
2021/11/01 09:26:21;;;;;;;;;;;;;;;12.92;100.00;96625.63;5112568;28;20061;-81
2021/11/01 09:29:00;;;;;;;14.75;8.65;;;;;;;13.02;100.00;96617.72;5111215;28;19920;-79
2021/11/01 09:37:09;;;;;;;15.43;7.68;;;;;;;14.17;100.00;96589.66;5112399;28;20052;-80
2021/11/01 09:42:13;;;;;;;11.75;7.03;;;;;;;13.86;100.00;96606.22;5111640;28;20060;-80
2021/11/01 09:44:40;;;;;;;12.23;7.65;;;;;;;14.23;100.00;96605.31;5111887;28;20147;-80
2021/11/01 09:47:06;;;;;;;11.90;7.53;;;;;;;14.23;100.00;96594.44;5110383;28;20051;-80
2021/11/01 09:49:33;;;;;;;14.52;8.57;;;;;;;14.23;100.00;96612.69;5112243;28;20051;-80
2021/11/01 09:52:03;;;;;;;13.98;8.30;;;;;;;14.21;100.00;96601.41;5110096;28;20551;-80
2021/11/01 09:54:31;;;;;;;13.82;8.60;;;;;;;14.24;100.00;96608.84;5110110;28;20089;-81
2021/11/01 09:57:19;;;;;;;15.88;9.02;;;;;;;14.11;100.00;96602.00;5112475;28;20047;-81
2021/11/01 09:59:47;;;;;;;12.25;8.23;;;;;;;14.22;100.00;96586.66;5110277;28;20047;-80
2021/11/01 10:02:18;;;;;;;14.57;8.77;;;;;;;14.10;100.00;96592.25;5111075;28;20055;-80
2021/11/01 10:04:48;;;;;;;15.95;9.50;;;;;;;14.01;100.00;96587.06;5111740;28;20059;-81
2021/11/01 10:07:33;;;;;;;13.38;8.50;;;;;;;14.11;100.00;96581.03;5111237;28;20048;-80
2021/11/01 10:10:12;;;;;;;13.45;8.82;;;;;;;14.26;100.00;96582.03;5111887;28;20058;-80
2021/11/01 10:12:42;;;;;;;16.88;9.32;;;;;;;14.10;100.00;96586.81;5110570;28;20483;-80
2021/11/01 10:18:08;;;;;;;15.45;9.32;;;;;;;14.19;100.00;96590.88;5112186;28;20490;-79
2021/11/01 10:20:40;;;;;;;17.48;10.88;;;;;;;14.61;100.00;96592.72;5112562;28;20081;-80
2021/11/01 10:23:22;;;;;;;17.95;10.95;;;;;;;14.55;100.00;96592.28;5112365;28;20138;-81
2021/11/01 10:25:50;;;;;;;20.67;10.70;;;;;;;14.53;100.00;96593.78;5112324;28;20047;-80
2021/11/01 10:28:27;;;;;;;17.92;10.43;;;;;;;14.44;100.00;96593.25;5113434;28;20048;-81
2021/11/01 10:31:14;;;;;;;18.50;10.13;;;;;;;14.43;100.00;96600.63;5115201;28;20100;-80
2021/11/01 10:33:46;;;;;;;17.98;10.65;;;;;;;14.62;100.00;96595.09;5109786;28;20483;-81
2021/11/01 10:36:24;;;;;;;16.42;10.32;;;;;;;14.66;100.00;96585.03;5109974;28;20055;-80
2021/11/01 10:38:56;;;;;;;16.05;10.25;;;;;;;14.79;100.00;96585.59;5109510;28;20048;-80
2021/11/01 10:41:43;;;;;;;15.93;10.13;;;;;;;14.62;100.00;96589.66;5110530;28;20051;-80
2021/11/01 11:11:57;;;;;;;13.35;8.60;;;;;;;13.41;100.00;96596.81;5111976;28;20059;-82
2021/11/01 11:14:29;;;;;;;15.13;8.23;;;;;;;13.45;100.00;96599.59;5109629;28;20044;-80
2021/11/01 11:22:40;;;;;;;13.13;7.22;;;;;;;13.33;100.00;96581.50;5110555;28;20056;-81
2021/11/01 11:49:30;;;;;;;8.35;4.80;;;;;;;12.35;100.00;96599.88;5110368;28;20674;-81
2021/11/01 11:52:03;;;;;;;9.38;4.90;;;;;;;12.45;100.00;96610.19;5109833;28;20047;-81
2021/11/01 11:54:30;;;;;;;7.30;4.55;;;;;;;12.49;100.00;96611.03;5109181;28;20521;-81
2021/11/01 11:57:02;;;;;;;8.95;5.22;;;;;;;12.41;100.00;96597.69;5110449;28;20067;-81
2021/11/01 11:59:35;;;;;;;5.78;3.47;;;;;;;12.26;100.00;96599.25;5109977;28;20093;-81
2021/11/01 12:02:09;;;;;;;9.50;4.55;;;;;;;12.28;100.00;96599.69;5109519;28;20093;-81
2021/11/01 12:04:47;;;;;;;7.15;3.75;;;;;;;11.89;100.00;96600.63;5109914;28;20047;-81
2021/11/01 12:07:16;;;;;;;9.75;4.25;;;;;;;12.04;100.00;96608.00;5113790;28;20094;-81
2021/11/01 12:09:55;;;;;;;8.38;4.35;;;;;;;11.91;100.00;96606.50;5112937;28;20108;-81
2021/11/01 12:17:32;;;;;;;6.60;3.40;;;;;;;11.78;100.00;96603.06;5113159;28;20491;-81
2021/11/01 12:20:04;;;;;;;6.68;3.65;;;;;;;11.81;100.00;96607.81;5113597;28;20039;-81
2021/11/01 12:22:34;;;;;;;9.18;3.90;;;;;;;11.77;100.00;96608.81;5111839;28;20460;-80
2021/11/01 12:25:06;;;;;;;8.57;3.70;;;;;;;11.83;100.00;96602.00;5111990;28;20491;-79
2021/11/01 12:27:35;;;;;;;8.05;3.50;;;;;;;11.77;100.00;96606.09;5112579;28;20463;-81
2021/11/01 12:30:08;;;;;;;7.75;3.88;;;;;;;11.93;100.00;96600.72;5113544;28;20062;-81
2021/11/01 12:32:37;;;;;;;11.57;3.78;;;;;;;11.85;100.00;96595.09;5112896;28;20499;-82
2021/11/01 12:35:20;;;;;;;5.75;3.47;;;;;;;11.79;100.00;96601.91;5111897;28;20425;-79
2021/11/01 12:38:03;;;;;;;7.80;4.00;;;;;;;11.75;100.00;96590.19;5111661;28;20048;-79
2021/11/01 12:40:47;;;;;;;7.75;4.22;;;;;;;11.85;100.00;96588.88;5112450;28;20044;-79
2021/11/01 12:57:31;;;;;;;;;;;;;;;12.00;100.00;96590.06;5113572;28;20499;-81
2021/11/01 13:00:00;;;;;;;10.02;4.05;;;;;;;12.13;100.00;96596.97;5115638;28;19965;-80
2021/11/01 13:02:27;;;;;;;10.10;4.20;;;;;;;12.28;100.00;96591.56;5113675;28;20460;-80
2021/11/01 13:04:57;;;;;;;9.52;4.03;;;;;;;12.17;100.00;96585.06;5113172;28;20055;-80
2021/11/01 13:10:00;;;;;;;9.35;3.72;;;;;;;12.44;100.00;96586.88;5113245;28;20047;-79
2021/11/01 13:17:48;;;;;;;9.75;4.60;;;;;;;12.06;100.00;96570.44;5112479;28;20454;-80
2021/11/01 13:20:39;;;;;;;8.13;4.15;;;;;;;12.05;100.00;96578.94;5112751;28;20043;-80
2021/11/01 13:23:08;;;;;;;9.35;4.10;;;;;;;12.00;100.00;96588.13;5112861;28;20051;-80
2021/11/01 13:37:13;;;;;;;10.60;4.82;;;;;;;11.88;100.00;96588.19;5112044;28;20048;-79
2021/11/01 13:39:40;;;;;;;11.18;5.53;;;;;;;11.81;100.00;96582.59;5111502;28;20063;-79
2021/11/01 13:42:16;;;;;;;12.38;4.95;;;;;;;11.82;100.00;96592.28;5132521;22;20047;-79
2021/11/01 13:44:44;;;;;;;9.73;4.90;;;;;;;11.67;100.00;96587.59;5129296;28;20035;-81
2021/11/01 13:47:16;;;;;;;10.95;5.60;;;;;;;11.58;100.00;96576.16;5113936;28;20123;-82
2021/11/01 13:49:45;;;;;;;11.82;5.90;;;;;;;11.62;100.00;96588.66;5123074;28;20039;-81
2021/11/01 13:57:37;;;;;;;9.35;5.57;;;;;;;11.61;100.00;96594.44;5129154;28;20239;-78
2021/11/01 14:11:19;;;;;;;13.25;6.88;;;;;;;11.71;100.00;96597.47;5129354;28;20036;-78
2021/11/01 14:14:11;;;;;;;16.45;7.15;;;;;;;11.79;100.00;96596.50;5097983;28;20075;-81
2021/11/01 14:16:55;;;;;;;17.95;7.05;;;;;;;12.11;100.00;96594.59;5121873;28;20115;-79
2021/11/01 14:20:02;;;;;;;19.15;6.63;;;;;;;11.88;100.00;96599.03;5120102;28;20047;-80
2021/11/01 14:28:21;;;;;;;10.65;5.65;;;;;;;11.72;100.00;96587.38;5115653;28;20055;-80
2021/11/01 14:31:04;;;;;;;12.30;5.60;;;;;;;11.88;100.00;96590.91;5113776;28;20067;-80
2021/11/01 14:34:00;;;;;;;12.73;5.28;;;;;;;11.66;100.00;96584.13;5098883;28;20054;-81
2021/11/01 16:19:34;;;;;;;10.13;4.57;;;;;;;10.67;100.00;96568.88;5117467;28;20101;-81
2021/11/01 16:22:01;;;;;;;12.57;5.10;;;;;;;10.68;100.00;96548.81;5100613;28;20104;-79
2021/11/01 16:24:28;;;;;;;13.73;5.75;;;;;;;10.73;100.00;96559.41;5114803;28;20464;-80
2021/11/01 16:26:54;;;;;;;18.58;5.80;;;;;;;10.77;100.00;96563.00;5096351;28;20047;-79
2021/11/01 16:29:26;;;;;;;14.80;5.80;;;;;;;10.68;100.00;96560.44;5109066;28;20160;-80
2021/11/01 16:31:58;;;;;;;18.17;6.07;;;;;;;10.73;100.00;96568.31;5103952;28;20472;-79
2021/11/01 16:34:31;;;;;;;14.57;5.75;;;;;;;10.77;100.00;96571.91;5112374;28;20047;-80
2021/11/01 16:39:47;;;;;;;8.95;5.10;;;;;;;10.87;100.00;96587.69;5105549;28;20286;-80
2021/11/01 16:42:29;;;;;;;14.82;5.70;;;;;;;10.79;100.00;96577.78;5108162;28;20047;-79
2021/11/01 16:45:08;;;;;;;14.68;5.85;;;;;;;10.80;100.00;96584.78;5090126;28;20047;-79
2021/11/01 16:47:34;;;;;;;15.60;6.10;;;;;;;10.75;100.00;96567.97;5089992;28;20073;-80
2021/11/01 16:50:04;;;;;;;16.80;6.13;;;;;;;10.89;100.00;96581.94;5088526;28;20036;-79
2021/11/01 16:52:31;;;;;;;11.40;5.80;;;;;;;10.98;100.00;96567.13;5105780;28;20044;-79
2021/11/01 16:55:00;;;;;;;14.40;5.50;;;;;;;10.94;100.00;96574.34;5108680;28;20051;-81
2021/11/01 16:57:36;;;;;;;11.30;5.57;;;;;;;11.06;100.00;96579.75;5105430;28;20044;-79
2021/11/01 17:02:43;;;;;;;13.13;5.88;;;;;;;11.06;100.00;96571.63;5118219;28;20442;-80
2021/11/01 17:08:15;;;;;;;15.18;6.50;;;;;;;11.17;100.00;96577.34;5097631;28;20052;-79
2021/11/01 17:24:20;;;;;;;14.70;6.90;;;;;;;10.64;100.00;96575.78;5100547;28;20439;-81
2021/11/01 17:27:13;;;;;;;19.48;7.93;;;;;;;10.36;100.00;96569.50;5102883;28;20051;-82
2021/11/01 17:30:43;;;;;;;14.73;7.65;;;;;;;10.44;100.00;96580.19;5095012;28;20036;-82
2021/11/01 18:53:10;;;;;;;13.98;6.63;;;;;;;10.25;100.00;96565.66;5103066;28;20059;-83
2021/11/01 18:55:37;;;;;;;14.40;7.00;;;;;;;10.35;100.00;96565.22;5107371;28;20051;-81
2021/11/01 18:58:05;;;;;;;12.85;6.38;;;;;;;10.33;100.00;96567.47;5101160;28;20113;-81
2021/11/01 19:00:42;;;;;;;11.63;5.82;;;;;;;10.29;100.00;96563.88;5079458;28;20040;-82
2021/11/01 19:03:12;;;;;;;10.02;5.65;;;;;;;10.29;100.00;96544.94;5077710;28;20089;-81
2021/11/01 19:05:45;;;;;;;11.70;6.40;;;;;;;10.31;100.00;96567.00;5088181;28;20075;-82
2021/11/01 19:08:25;;;;;;;16.10;6.60;;;;;;;10.34;100.00;96567.13;5087278;28;20043;-82
2021/11/01 19:17:52;;;;;;;11.25;6.05;;;;;;;10.36;100.00;96561.38;5110585;28;20056;-81
2021/11/01 20:04:18;;;;;;;17.02;8.55;;;;;;;10.34;100.00;96561.72;5109598;28;20107;-81
2021/11/01 20:09:45;;;;;;;16.25;7.35;;;;;;;10.22;100.00;96552.81;5108584;28;20491;-81
2021/11/01 21:25:18;;;;;;;17.17;6.13;;;;;;;10.07;100.00;96531.81;5104972;28;20058;-82
2021/11/01 21:27:45;;;;;;;20.77;5.93;;;;;;;9.88;100.00;96525.06;5090439;28;20121;-82
2021/11/01 21:30:13;;;;;;;14.82;5.95;;;;;;;10.10;100.00;96539.25;5090219;28;20097;-82
2021/11/01 21:32:40;;;;;;;16.23;6.25;;;;;;;10.05;100.00;96532.16;5089531;28;20174;-83
2021/11/01 21:35:12;;;;;;;16.30;5.75;;;;;;;10.08;100.00;96525.28;5088058;28;20051;-82
2021/11/01 21:37:40;;;;;;;14.20;5.13;;;;;;;10.03;100.00;96521.69;5084445;28;20100;-81
2021/11/01 21:40:10;;;;;;;15.25;5.93;;;;;;;10.03;100.00;96523.63;5109258;28;20535;-82
2021/11/01 21:42:38;;;;;;;14.23;5.68;;;;;;;10.03;100.00;96521.69;5107375;28;20560;-81
2021/11/01 21:45:05;;;;;;;17.50;6.20;;;;;;;9.99;100.00;96522.69;5091021;28;20151;-82
2021/11/01 21:47:35;;;;;;;16.25;6.18;;;;;;;10.00;100.00;96513.47;5110180;28;20059;-82
2021/11/01 21:50:06;;;;;;;18.20;6.38;;;;;;;10.37;100.00;96504.25;5093136;28;20047;-82
2021/11/01 21:52:55;;;;;;;14.50;5.93;;;;;;;10.23;100.00;96497.59;5101417;28;20047;-82
2021/11/01 21:55:23;;;;;;;14.80;5.90;;;;;;;10.27;100.00;96498.50;5089762;28;20163;-81
2021/11/01 21:58:11;;;;;;;15.90;6.43;;;;;;;10.24;100.00;96502.69;5070215;28;20048;-80
2021/11/01 22:32:44;;;;;;;10.65;3.90;;;;;;;10.21;100.00;96475.50;5084076;28;20056;-83
2021/11/01 22:38:20;;;;;;;14.15;3.67;;;;;;;10.25;100.00;96473.69;5084016;28;20101;-82
2021/11/01 22:40:55;;;;;;;9.40;3.00;;;;;;;10.37;100.00;96469.06;5102272;28;20101;-81